Time;durP1;ratioP1;P1;durP2;ratioP2;P2;SDS_P1;SDS_P2;PMS_P1;PMS_P2;Temp;Humidity;BMP_temperature;BMP_pressure;BME280_temperature;BME280_humidity;BME280_pressure;Samples;Min_cycle;Max_cycle;Signal;HPM_P1;HPM_P2
2023/06/23 00:01:40;;;;;;;12.10;8.77;;;;;;;;;;5035494;28;20127;-88
2023/06/23 00:04:06;;;;;;;14.63;9.57;;;;;;;;;;5036943;28;20052;-89
2023/06/23 00:06:33;;;;;;;14.70;9.30;;;;;;;;;;5054009;28;20041;-89
2023/06/23 00:09:00;;;;;;;12.57;8.75;;;;;;;;;;5054332;28;20053;-87
2023/06/23 00:11:28;;;;;;;17.23;9.68;;;;;;;;;;5032470;28;20044;-89
2023/06/23 00:13:54;;;;;;;14.70;8.77;;;;;;;;;;5037071;28;20076;-88
2023/06/23 00:16:20;;;;;;;13.20;8.38;;;;;;;;;;5023792;28;20049;-89
2023/06/23 00:18:46;;;;;;;14.52;8.63;;;;;;;;;;5048270;28;20045;-88
2023/06/23 00:21:13;;;;;;;13.02;8.68;;;;;;;;;;5030510;28;20053;-88
2023/06/23 00:23:39;;;;;;;12.50;8.65;;;;;;;;;;5053233;28;20048;-88
2023/06/23 00:26:07;;;;;;;13.68;8.57;;;;;;;;;;5058199;28;20040;-88
2023/06/23 00:28:35;;;;;;;12.05;7.88;;;;;;;;;;5025520;28;20039;-88
2023/06/23 00:31:01;;;;;;;12.55;8.27;;;;;;;;;;5045830;28;20041;-87
2023/06/23 00:33:28;;;;;;;12.05;7.60;;;;;;;;;;5020414;28;20056;-88
2023/06/23 00:35:54;;;;;;;12.27;7.50;;;;;;;;;;5036235;28;20044;-88
2023/06/23 00:38:20;;;;;;;12.80;7.47;;;;;;;;;;5052976;28;20045;-89
2023/06/23 00:40:46;;;;;;;12.13;7.18;;;;;;;;;;5027330;28;20434;-87
2023/06/23 00:43:12;;;;;;;19.05;6.97;;;;;;;;;;5016849;28;20049;-89
2023/06/23 00:45:38;;;;;;;11.32;6.50;;;;;;;;;;5032989;28;20128;-88
2023/06/23 00:48:05;;;;;;;11.80;6.85;;;;;;;;;;5023110;28;20423;-89
2023/06/23 00:50:31;;;;;;;10.65;6.32;;;;;;;;;;5052123;28;20041;-87
2023/06/23 00:52:57;;;;;;;9.63;6.07;;;;;;;;;;5034573;28;20553;-89
2023/06/23 00:55:25;;;;;;;10.13;5.70;;;;;;;;;;5051574;28;20516;-88
2023/06/23 00:57:52;;;;;;;9.57;5.47;;;;;;;;;;5051947;28;20040;-88
2023/06/23 01:00:19;;;;;;;9.23;5.75;;;;;;;;;;5051876;28;20047;-90
2023/06/23 01:02:49;;;;;;;10.45;5.60;;;;;;;;;;5036121;28;20132;-88
2023/06/23 01:05:18;;;;;;;10.05;5.38;;;;;;;;;;5028725;28;20383;-89
2023/06/23 01:07:52;;;;;;;8.38;5.50;;;;;;;;;;5015537;28;20521;-89
2023/06/23 01:10:32;;;;;;;9.45;5.53;;;;;;;;;;5016202;28;20069;-89
2023/06/23 01:13:16;;;;;;;9.07;5.40;;;;;;;;;;5023928;28;20048;-89
2023/06/23 01:15:45;;;;;;;8.98;5.32;;;;;;;;;;5035772;28;20091;-88
2023/06/23 01:18:20;;;;;;;9.38;5.00;;;;;;;;;;5051952;28;20095;-88
2023/06/23 01:20:47;;;;;;;9.73;5.33;;;;;;;;;;5023379;28;20041;-89
2023/06/23 01:23:39;;;;;;;10.52;4.75;;;;;;;;;;5016033;28;20412;-89
2023/06/23 01:26:09;;;;;;;9.50;5.30;;;;;;;;;;5016189;28;20140;-89
2023/06/23 01:28:41;;;;;;;9.05;4.60;;;;;;;;;;5015732;28;20049;-89
2023/06/23 01:31:09;;;;;;;9.88;5.13;;;;;;;;;;5015977;28;20048;-88
2023/06/23 01:33:48;;;;;;;10.18;4.88;;;;;;;;;;5015838;28;20052;-89
2023/06/23 01:36:16;;;;;;;10.77;5.38;;;;;;;;;;5022509;28;20088;-89
2023/06/23 01:38:47;;;;;;;9.70;5.00;;;;;;;;;;5018163;28;20040;-89
2023/06/23 01:41:24;;;;;;;7.43;4.53;;;;;;;;;;5047453;28;20080;-89
2023/06/23 01:43:55;;;;;;;10.60;4.85;;;;;;;;;;5032866;28;20494;-89
2023/06/23 01:46:25;;;;;;;7.93;4.57;;;;;;;;;;5016371;28;20056;-90
2023/06/23 01:48:54;;;;;;;11.90;5.03;;;;;;;;;;5034938;28;20037;-89
2023/06/23 01:51:21;;;;;;;9.13;4.80;;;;;;;;;;5035366;28;20099;-89
2023/06/23 01:53:49;;;;;;;7.78;4.65;;;;;;;;;;5039262;28;20485;-89
2023/06/23 01:56:16;;;;;;;8.95;4.88;;;;;;;;;;5056079;28;20079;-89
2023/06/23 01:58:43;;;;;;;7.68;4.63;;;;;;;;;;5038328;28;20052;-89
2023/06/23 02:01:10;;;;;;;8.52;4.50;;;;;;;;;;5019348;28;20045;-89
2023/06/23 02:03:38;;;;;;;9.27;4.50;;;;;;;;;;5026882;28;20048;-89
2023/06/23 02:06:05;;;;;;;9.75;4.72;;;;;;;;;;5038672;28;20108;-90
2023/06/23 02:08:33;;;;;;;8.98;4.80;;;;;;;;;;5056029;28;20123;-90
2023/06/23 02:11:01;;;;;;;7.80;4.60;;;;;;;;;;5033767;28;20095;-90
2023/06/23 02:13:27;;;;;;;8.15;4.60;;;;;;;;;;5019426;28;20045;-89
2023/06/23 02:15:54;;;;;;;7.15;4.65;;;;;;;;;;5019593;28;20045;-89
2023/06/23 02:18:21;;;;;;;7.53;4.43;;;;;;;;;;5029161;28;20034;-90
2023/06/23 02:20:48;;;;;;;8.27;4.85;;;;;;;;;;5046633;28;20408;-89
2023/06/23 02:23:15;;;;;;;8.60;4.40;;;;;;;;;;5036074;28;20046;-89
2023/06/23 02:25:41;;;;;;;5.85;4.20;;;;;;;;;;5051077;28;20060;-88
2023/06/23 02:28:09;;;;;;;8.57;4.30;;;;;;;;;;5039127;28;20401;-89
2023/06/23 02:30:35;;;;;;;10.63;4.45;;;;;;;;;;5038766;28;20485;-88
2023/06/23 02:33:01;;;;;;;8.90;4.25;;;;;;;;;;5056448;28;20051;-88
2023/06/23 02:35:28;;;;;;;9.65;4.65;;;;;;;;;;5039833;28;20048;-89
2023/06/23 02:37:56;;;;;;;7.47;4.18;;;;;;;;;;5023717;28;20482;-89
2023/06/23 02:40:24;;;;;;;8.60;4.00;;;;;;;;;;5035576;28;20054;-89
2023/06/23 02:42:52;;;;;;;6.45;4.18;;;;;;;;;;5037431;28;20041;-88
2023/06/23 02:45:20;;;;;;;7.13;3.88;;;;;;;;;;5023395;28;20041;-88
2023/06/23 02:47:48;;;;;;;7.95;3.95;;;;;;;;;;5022891;28;20041;-88
2023/06/23 02:50:16;;;;;;;7.45;4.03;;;;;;;;;;5022906;28;20049;-87
2023/06/23 02:52:45;;;;;;;5.97;3.97;;;;;;;;;;5039345;28;20045;-87
2023/06/23 02:55:11;;;;;;;7.97;4.00;;;;;;;;;;5022874;28;20045;-88
2023/06/23 02:57:38;;;;;;;7.95;4.30;;;;;;;;;;5041451;28;20102;-88
2023/06/23 03:00:11;;;;;;;7.22;4.35;;;;;;;;;;5058617;28;20041;-87
2023/06/23 03:02:39;;;;;;;6.53;3.80;;;;;;;;;;5047969;28;20080;-87
2023/06/23 03:05:06;;;;;;;7.75;4.20;;;;;;;;;;5027633;28;20077;-88
2023/06/23 03:07:33;;;;;;;8.00;4.32;;;;;;;;;;5037230;28;20044;-89
2023/06/23 03:09:59;;;;;;;6.03;4.30;;;;;;;;;;5033821;28;20053;-88
2023/06/23 03:12:26;;;;;;;6.63;4.32;;;;;;;;;;5038974;28;20041;-89
2023/06/23 03:14:53;;;;;;;6.88;3.95;;;;;;;;;;5019649;28;20064;-89
2023/06/23 03:17:22;;;;;;;7.38;4.35;;;;;;;;;;5021159;28;20083;-89
2023/06/23 03:19:49;;;;;;;7.90;4.30;;;;;;;;;;5024871;28;20045;-89
2023/06/23 03:22:19;;;;;;;7.30;4.15;;;;;;;;;;5054067;28;20045;-88
2023/06/23 03:24:47;;;;;;;9.63;4.32;;;;;;;;;;5053078;28;20409;-88
2023/06/23 03:27:14;;;;;;;7.63;4.07;;;;;;;;;;5021305;28;20099;-89
2023/06/23 03:29:44;;;;;;;8.20;3.88;;;;;;;;;;5018234;28;20080;-88
2023/06/23 03:32:13;;;;;;;8.07;4.40;;;;;;;;;;5038324;28;20037;-88
2023/06/23 03:34:44;;;;;;;9.02;3.97;;;;;;;;;;5037693;28;20430;-88
2023/06/23 03:37:11;;;;;;;7.60;4.13;;;;;;;;;;5036912;28;20135;-89
2023/06/23 03:39:40;;;;;;;7.32;4.03;;;;;;;;;;5019858;28;20049;-87
2023/06/23 03:42:06;;;;;;;6.38;3.95;;;;;;;;;;5034581;28;20049;-88
2023/06/23 03:44:36;;;;;;;9.57;3.83;;;;;;;;;;5054988;28;20133;-89
2023/06/23 03:47:06;;;;;;;7.18;4.00;;;;;;;;;;5054459;28;20040;-88
2023/06/23 03:49:38;;;;;;;7.35;4.18;;;;;;;;;;5037630;28;20432;-89
2023/06/23 03:52:06;;;;;;;5.85;3.80;;;;;;;;;;5037704;28;20106;-89
2023/06/23 03:54:33;;;;;;;6.63;4.10;;;;;;;;;;5036948;28;20362;-88
2023/06/23 03:57:01;;;;;;;8.35;4.10;;;;;;;;;;5052811;28;20037;-89
2023/06/23 03:59:28;;;;;;;7.53;4.53;;;;;;;;;;5037606;28;20049;-90
2023/06/23 04:01:56;;;;;;;7.03;3.75;;;;;;;;;;5052267;28;20102;-90
2023/06/23 04:04:22;;;;;;;5.40;3.80;;;;;;;;;;5037198;28;20055;-89
2023/06/23 04:06:49;;;;;;;8.90;4.45;;;;;;;;;;5020190;28;20045;-89
2023/06/23 04:09:16;;;;;;;7.95;4.43;;;;;;;;;;5032414;28;20049;-90
2023/06/23 04:11:44;;;;;;;8.00;4.40;;;;;;;;;;5018586;28;20068;-88
2023/06/23 04:14:10;;;;;;;7.32;4.13;;;;;;;;;;5025909;28;20049;-89
2023/06/23 04:16:38;;;;;;;10.18;4.63;;;;;;;;;;5017366;28;20060;-89
2023/06/23 04:19:06;;;;;;;8.15;4.20;;;;;;;;;;5033781;28;20038;-88
2023/06/23 04:21:33;;;;;;;8.65;4.68;;;;;;;;;;5016892;28;20050;-89
2023/06/23 04:24:01;;;;;;;11.45;4.90;;;;;;;;;;5043404;28;20037;-88
2023/06/23 04:26:28;;;;;;;9.52;5.22;;;;;;;;;;5031925;28;20045;-88
2023/06/23 04:28:54;;;;;;;8.88;5.32;;;;;;;;;;5044971;28;20041;-89
2023/06/23 04:31:22;;;;;;;8.40;4.35;;;;;;;;;;5051945;28;20048;-89
2023/06/23 04:33:48;;;;;;;8.65;5.00;;;;;;;;;;5036594;28;20051;-89
2023/06/23 04:36:16;;;;;;;7.05;4.70;;;;;;;;;;5037216;28;20053;-89
2023/06/23 04:38:45;;;;;;;9.52;4.85;;;;;;;;;;5036707;28;20094;-88
2023/06/23 04:41:15;;;;;;;9.80;5.20;;;;;;;;;;5052276;28;20045;-89
2023/06/23 04:43:42;;;;;;;9.75;5.13;;;;;;;;;;5034679;28;20044;-89
2023/06/23 04:46:16;;;;;;;10.65;5.10;;;;;;;;;;5053331;28;20044;-89
2023/06/23 04:48:46;;;;;;;10.38;5.53;;;;;;;;;;5036517;28;20128;-89
2023/06/23 04:51:14;;;;;;;9.15;5.57;;;;;;;;;;5035872;28;20485;-89
2023/06/23 04:53:45;;;;;;;11.63;5.57;;;;;;;;;;5024968;28;20136;-88
2023/06/23 04:56:15;;;;;;;10.38;5.93;;;;;;;;;;5016698;28;20390;-89
2023/06/23 04:58:42;;;;;;;7.85;5.43;;;;;;;;;;5028284;28;20098;-89
2023/06/23 05:01:11;;;;;;;9.35;5.60;;;;;;;;;;5034902;28;20048;-78
2023/06/23 05:03:38;;;;;;;9.27;5.57;;;;;;;;;;5034573;28;20045;-78
2023/06/23 05:06:05;;;;;;;8.63;5.65;;;;;;;;;;5043971;28;20406;-78
2023/06/23 05:08:32;;;;;;;9.15;6.35;;;;;;;;;;5023500;28;20060;-78
2023/06/23 05:11:04;;;;;;;8.70;6.35;;;;;;;;;;5052216;28;20409;-78
2023/06/23 05:13:30;;;;;;;10.20;5.88;;;;;;;;;;5052132;28;20048;-78
2023/06/23 05:15:57;;;;;;;12.20;6.47;;;;;;;;;;5032812;28;20049;-78
2023/06/23 05:18:23;;;;;;;9.95;6.25;;;;;;;;;;5044879;28;20095;-78
2023/06/23 05:20:50;;;;;;;10.65;6.15;;;;;;;;;;5043963;28;20080;-78
2023/06/23 05:23:17;;;;;;;9.98;5.95;;;;;;;;;;5018507;28;20041;-79
2023/06/23 05:25:44;;;;;;;12.00;6.13;;;;;;;;;;5014084;28;20061;-78
2023/06/23 05:28:11;;;;;;;12.05;6.25;;;;;;;;;;5022540;28;20041;-78
2023/06/23 05:30:38;;;;;;;9.45;6.30;;;;;;;;;;5016158;28;20498;-79
2023/06/23 05:33:07;;;;;;;11.63;6.50;;;;;;;;;;5037723;28;20449;-78
2023/06/23 05:35:34;;;;;;;10.82;6.07;;;;;;;;;;5052410;28;20057;-79
2023/06/23 05:38:01;;;;;;;10.80;6.10;;;;;;;;;;5032693;28;20066;-78
2023/06/23 05:40:27;;;;;;;9.63;5.90;;;;;;;;;;5033851;28;20067;-78
2023/06/23 05:42:53;;;;;;;9.70;6.30;;;;;;;;;;5051914;28;20041;-78
2023/06/23 05:45:19;;;;;;;8.10;5.82;;;;;;;;;;5034247;28;20041;-79
2023/06/23 05:47:51;;;;;;;8.70;5.97;;;;;;;;;;5032797;28;20129;-79
2023/06/23 05:50:25;;;;;;;10.90;6.30;;;;;;;;;;5050117;28;20041;-78
2023/06/23 05:52:56;;;;;;;14.18;6.63;;;;;;;;;;5050303;28;20052;-79
2023/06/23 05:55:23;;;;;;;10.88;7.30;;;;;;;;;;5033488;28;20056;-78
2023/06/23 05:57:50;;;;;;;10.20;6.97;;;;;;;;;;5034015;28;20091;-79
2023/06/23 06:00:19;;;;;;;12.75;7.60;;;;;;;;;;5033543;28;20045;-79
2023/06/23 06:02:47;;;;;;;10.35;7.13;;;;;;;;;;5014279;28;20343;-79
2023/06/23 06:05:17;;;;;;;11.02;6.95;;;;;;;;;;5021203;28;20133;-79
2023/06/23 06:07:44;;;;;;;9.57;7.13;;;;;;;;;;5051558;28;20098;-79
2023/06/23 06:10:11;;;;;;;14.63;7.60;;;;;;;;;;5031316;28;20053;-78
2023/06/23 06:12:38;;;;;;;12.38;7.63;;;;;;;;;;5050190;28;20057;-78
2023/06/23 06:15:05;;;;;;;11.65;7.38;;;;;;;;;;5022203;28;20053;-78
2023/06/23 06:17:33;;;;;;;12.65;7.53;;;;;;;;;;5032185;28;20073;-79
2023/06/23 06:20:01;;;;;;;12.48;7.07;;;;;;;;;;5051209;28;20102;-78
2023/06/23 06:22:28;;;;;;;13.27;7.72;;;;;;;;;;5048801;28;20139;-79
2023/06/23 06:24:54;;;;;;;10.07;7.30;;;;;;;;;;5051411;28;20137;-79
2023/06/23 06:27:21;;;;;;;9.68;6.97;;;;;;;;;;5051430;28;20037;-79
2023/06/23 06:29:48;;;;;;;12.23;7.90;;;;;;;;;;5033047;28;20037;-78
2023/06/23 06:32:15;;;;;;;15.02;7.82;;;;;;;;;;5050274;28;20468;-79
2023/06/23 06:34:42;;;;;;;13.57;7.15;;;;;;;;;;5051476;28;20354;-78
2023/06/23 06:37:09;;;;;;;13.73;6.60;;;;;;;;;;5051216;28;20056;-79
2023/06/23 06:39:36;;;;;;;9.65;6.10;;;;;;;;;;5054903;28;20045;-79
2023/06/23 06:42:02;;;;;;;19.55;6.70;;;;;;;;;;5037529;28;20147;-78
2023/06/23 06:44:28;;;;;;;10.35;5.57;;;;;;;;;;5055309;28;20124;-77
2023/06/23 06:46:55;;;;;;;10.30;5.20;;;;;;;;;;5036882;28;20045;-78
2023/06/23 06:49:23;;;;;;;9.38;5.35;;;;;;;;;;5052942;28;20048;-78
2023/06/23 06:51:50;;;;;;;7.78;5.30;;;;;;;;;;5036267;28;20041;-78
2023/06/23 06:54:17;;;;;;;6.35;5.10;;;;;;;;;;5036115;28;20069;-77
2023/06/23 06:56:43;;;;;;;7.90;5.20;;;;;;;;;;5028655;28;20079;-77
2023/06/23 06:59:11;;;;;;;8.48;5.22;;;;;;;;;;5057229;28;20108;-88
2023/06/23 07:01:38;;;;;;;7.72;5.00;;;;;;;;;;5041675;28;20091;-88
2023/06/23 07:04:05;;;;;;;6.68;4.43;;;;;;;;;;5043669;28;20071;-88
2023/06/23 07:06:31;;;;;;;6.05;4.32;;;;;;;;;;5042815;28;20048;-89
2023/06/23 07:08:57;;;;;;;5.47;4.05;;;;;;;;;;5043415;28;20060;-88
2023/06/23 07:11:24;;;;;;;6.00;4.10;;;;;;;;;;5043413;28;20041;-89
2023/06/23 07:13:50;;;;;;;7.03;4.40;;;;;;;;;;5060098;28;20076;-89
2023/06/23 07:16:16;;;;;;;6.80;4.38;;;;;;;;;;5060317;28;20041;-88
2023/06/23 07:18:42;;;;;;;6.30;3.95;;;;;;;;;;5060120;28;20440;-89
2023/06/23 07:21:10;;;;;;;6.78;4.10;;;;;;;;;;5028265;28;20044;-89
2023/06/23 07:23:37;;;;;;;6.38;3.80;;;;;;;;;;5044831;28;20118;-88
2023/06/23 07:26:03;;;;;;;8.15;3.90;;;;;;;;;;5029006;28;20045;-89
2023/06/23 07:28:29;;;;;;;5.90;3.47;;;;;;;;;;5058719;28;20052;-88
2023/06/23 07:30:55;;;;;;;7.22;3.60;;;;;;;;;;5059114;28;20041;-90
2023/06/23 07:33:21;;;;;;;5.03;3.60;;;;;;;;;;5045392;28;20041;-91
2023/06/23 07:35:47;;;;;;;5.63;3.22;;;;;;;;;;5026470;28;20040;-90
2023/06/23 07:38:14;;;;;;;6.95;4.20;;;;;;;;;;5048140;28;20101;-90
2023/06/23 07:40:40;;;;;;;6.45;3.60;;;;;;;;;;5030043;28;20055;-90
2023/06/23 07:43:06;;;;;;;8.45;3.67;;;;;;;;;;5029789;28;20305;-90
2023/06/23 07:45:32;;;;;;;5.05;3.22;;;;;;;;;;5028476;28;20153;-88
2023/06/23 07:47:58;;;;;;;6.35;3.60;;;;;;;;;;5041861;28;20051;-89
2023/06/23 07:50:26;;;;;;;5.72;3.58;;;;;;;;;;5040476;28;20377;-89
2023/06/23 07:52:53;;;;;;;6.35;3.55;;;;;;;;;;5040961;28;20033;-89
2023/06/23 07:55:19;;;;;;;4.68;3.15;;;;;;;;;;5039732;28;20099;-90
2023/06/23 07:57:45;;;;;;;7.07;3.33;;;;;;;;;;5042372;28;20124;-89
2023/06/23 08:00:13;;;;;;;4.57;3.08;;;;;;;;;;5028925;28;20057;-90
2023/06/23 08:02:39;;;;;;;5.05;3.28;;;;;;;;;;5044610;28;20109;-90
2023/06/23 08:05:05;;;;;;;4.90;2.80;;;;;;;;;;5044518;28;20075;-91
2023/06/23 08:07:31;;;;;;;4.70;2.97;;;;;;;;;;5060562;28;20041;-91
2023/06/23 08:09:57;;;;;;;6.43;3.50;;;;;;;;;;5044960;28;20101;-91
2023/06/23 08:12:23;;;;;;;6.22;3.28;;;;;;;;;;5027979;28;20100;-90
2023/06/23 08:14:49;;;;;;;8.20;3.63;;;;;;;;;;5027784;28;20441;-91
2023/06/23 08:17:16;;;;;;;6.03;3.45;;;;;;;;;;5027136;28;20100;-91
2023/06/23 08:19:43;;;;;;;5.07;3.42;;;;;;;;;;5043859;28;20048;-90
2023/06/23 08:22:09;;;;;;;5.03;3.08;;;;;;;;;;5028868;28;20095;-90
2023/06/23 08:24:36;;;;;;;5.50;3.38;;;;;;;;;;5027244;28;20151;-90
2023/06/23 08:27:03;;;;;;;6.43;3.60;;;;;;;;;;5028127;28;20055;-89
2023/06/23 08:29:29;;;;;;;7.55;3.80;;;;;;;;;;5043593;28;20138;-88
2023/06/23 08:31:55;;;;;;;6.15;4.07;;;;;;;;;;5044713;28;20095;-90
2023/06/23 08:34:21;;;;;;;6.45;4.18;;;;;;;;;;5051024;28;20409;-91
2023/06/23 08:36:48;;;;;;;6.63;3.90;;;;;;;;;;5044033;28;20092;-91
2023/06/23 08:39:15;;;;;;;8.55;4.30;;;;;;;;;;5045221;28;20045;-90
2023/06/23 08:41:41;;;;;;;7.88;4.53;;;;;;;;;;5042450;28;20117;-91
2023/06/23 08:44:11;;;;;;;7.72;4.45;;;;;;;;;;5040914;28;20127;-90
2023/06/23 08:46:40;;;;;;;6.53;4.63;;;;;;;;;;5040345;28;20378;-90
2023/06/23 08:49:08;;;;;;;9.40;4.88;;;;;;;;;;5039062;28;20041;-90
2023/06/23 08:51:35;;;;;;;8.88;4.38;;;;;;;;;;5038870;28;20370;-91
2023/06/23 08:54:01;;;;;;;7.45;4.32;;;;;;;;;;5037655;28;20040;-91
2023/06/23 08:56:27;;;;;;;6.18;3.90;;;;;;;;;;5037904;28;20076;-89
2023/06/23 08:58:54;;;;;;;6.53;3.60;;;;;;;;;;5040839;28;20052;-90
2023/06/23 09:01:20;;;;;;;6.95;3.88;;;;;;;;;;5059017;28;20466;-90
2023/06/23 09:03:46;;;;;;;6.35;3.10;;;;;;;;;;5043281;28;20036;-90
2023/06/23 09:06:12;;;;;;;4.93;3.00;;;;;;;;;;5042365;28;20060;-89
2023/06/23 09:08:39;;;;;;;7.55;3.53;;;;;;;;;;5065493;28;20049;-88
2023/06/23 09:11:05;;;;;;;5.63;3.58;;;;;;;;;;5061946;28;20120;-90
2023/06/23 09:13:35;;;;;;;8.05;3.20;;;;;;;;;;5045190;28;20051;-91
2023/06/23 09:16:01;;;;;;;7.70;3.17;;;;;;;;;;5059956;28;20059;-90
2023/06/23 09:18:31;;;;;;;8.18;3.25;;;;;;;;;;5033306;28;20041;-89
2023/06/23 09:20:59;;;;;;;5.45;3.10;;;;;;;;;;5044152;28;20044;-90
2023/06/23 09:23:26;;;;;;;5.93;2.97;;;;;;;;;;5054409;28;20037;-90
2023/06/23 09:25:54;;;;;;;8.15;3.20;;;;;;;;;;5041448;28;20476;-90
2023/06/23 09:28:31;;;;;;;5.70;3.15;;;;;;;;;;5043406;28;20089;-90
2023/06/23 09:30:58;;;;;;;6.32;2.70;;;;;;;;;;5072120;28;20112;-90
2023/06/23 09:33:25;;;;;;;5.90;3.05;;;;;;;;;;5041705;28;20072;-91
2023/06/23 09:35:52;;;;;;;7.28;3.35;;;;;;;;;;5021196;28;20044;-91
2023/06/23 09:38:19;;;;;;;4.82;3.30;;;;;;;;;;5039330;28;20040;-90
2023/06/23 09:40:45;;;;;;;5.10;3.20;;;;;;;;;;5054443;28;20077;-91
2023/06/23 09:43:11;;;;;;;4.55;3.30;;;;;;;;;;5038916;28;20044;-91
2023/06/23 09:45:37;;;;;;;5.10;3.00;;;;;;;;;;5021599;28;20528;-90
2023/06/23 09:48:04;;;;;;;5.78;3.50;;;;;;;;;;5054624;28;20045;-91
2023/06/23 09:50:31;;;;;;;5.95;3.25;;;;;;;;;;5037647;28;20049;-91
2023/06/23 09:53:03;;;;;;;6.90;3.33;;;;;;;;;;5053112;28;20037;-92
2023/06/23 09:55:32;;;;;;;6.93;3.42;;;;;;;;;;5036633;28;20049;-92
2023/06/23 09:57:59;;;;;;;7.13;3.63;;;;;;;;;;5035500;28;20041;-91
2023/06/23 10:00:32;;;;;;;4.65;3.03;;;;;;;;;;5036331;28;20413;-92
2023/06/23 10:03:02;;;;;;;5.15;3.47;;;;;;;;;;5034694;28;20547;-79
2023/06/23 10:05:35;;;;;;;6.50;3.55;;;;;;;;;;5032342;28;20045;-80
2023/06/23 10:08:06;;;;;;;5.10;3.30;;;;;;;;;;5050244;28;20132;-79
2023/06/23 10:10:33;;;;;;;5.28;3.17;;;;;;;;;;5050409;28;20386;-79
2023/06/23 10:12:59;;;;;;;5.97;3.65;;;;;;;;;;5051053;28;20059;-80
2023/06/23 10:15:25;;;;;;;5.13;3.78;;;;;;;;;;5037021;28;20485;-80
2023/06/23 10:17:52;;;;;;;6.10;4.00;;;;;;;;;;5037282;28;20045;-80
2023/06/23 10:20:18;;;;;;;8.35;4.50;;;;;;;;;;5035794;28;20076;-89
2023/06/23 10:22:45;;;;;;;5.50;3.88;;;;;;;;;;5052815;28;20041;-92
2023/06/23 10:25:11;;;;;;;7.45;4.72;;;;;;;;;;5042205;28;20495;-88
2023/06/23 10:27:38;;;;;;;11.60;4.20;;;;;;;;;;5034945;28;20091;-89
2023/06/23 10:30:04;;;;;;;8.85;4.55;;;;;;;;;;5017690;28;20045;-90
2023/06/23 10:32:34;;;;;;;7.35;4.35;;;;;;;;;;5034424;28;20092;-88
2023/06/23 10:35:07;;;;;;;6.82;4.43;;;;;;;;;;5033841;28;20056;-89
2023/06/23 10:37:33;;;;;;;6.30;4.47;;;;;;;;;;5033895;28;20104;-90
2023/06/23 10:40:05;;;;;;;8.65;4.70;;;;;;;;;;5034778;28;20069;-90
2023/06/23 10:42:34;;;;;;;5.80;4.25;;;;;;;;;;5035004;28;20044;-88
2023/06/23 10:45:01;;;;;;;6.80;4.53;;;;;;;;;;5017511;28;20045;-80
2023/06/23 10:47:27;;;;;;;7.82;4.72;;;;;;;;;;5017293;28;20080;-79
2023/06/23 10:49:54;;;;;;;8.80;4.53;;;;;;;;;;5016963;28;20042;-77
2023/06/23 10:52:21;;;;;;;6.68;3.97;;;;;;;;;;5017297;28;20511;-78
2023/06/23 10:54:48;;;;;;;8.27;4.80;;;;;;;;;;5035495;28;20071;-79
2023/06/23 10:57:14;;;;;;;11.68;4.90;;;;;;;;;;5036222;28;20058;-78
2023/06/23 11:00:05;;;;;;;6.65;4.80;;;;;;;;;;5038626;28;20055;-94
2023/06/23 11:02:53;;;;;;;9.23;4.95;;;;;;;;;;5067168;28;20068;-94
2023/06/23 11:05:19;;;;;;;7.97;4.82;;;;;;;;;;5055202;28;20556;-93
2023/06/23 11:08:02;;;;;;;9.23;5.00;;;;;;;;;;5054967;28;20044;-92
2023/06/23 11:10:47;;;;;;;7.00;5.15;;;;;;;;;;5073705;28;20048;-92
2023/06/23 11:13:13;;;;;;;9.13;4.90;;;;;;;;;;5061883;28;20021;-94
2023/06/23 11:15:42;;;;;;;10.70;5.20;;;;;;;;;;5078277;28;20093;-94
2023/06/23 11:18:11;;;;;;;11.43;5.53;;;;;;;;;;5076669;28;20501;-94
2023/06/23 11:20:44;;;;;;;11.07;5.65;;;;;;;;;;5031447;28;20045;-94
2023/06/23 11:23:14;;;;;;;7.15;5.43;;;;;;;;;;5034514;28;20126;-93
2023/06/23 11:25:48;;;;;;;10.55;5.50;;;;;;;;;;5051795;28;20044;-96
2023/06/23 11:28:23;;;;;;;6.25;4.60;;;;;;;;;;5032008;28;20374;-93
2023/06/23 11:30:53;;;;;;;7.35;5.07;;;;;;;;;;5030625;28;20060;-92
2023/06/23 11:33:39;;;;;;;7.50;5.15;;;;;;;;;;5028146;28;20048;-93
2023/06/23 11:36:11;;;;;;;7.45;4.90;;;;;;;;;;5045251;28;20506;-93
2023/06/23 11:38:40;;;;;;;8.90;5.18;;;;;;;;;;5042432;28;20088;-93
2023/06/23 11:41:06;;;;;;;7.30;5.20;;;;;;;;;;5026264;28;20056;-94
2023/06/23 11:43:39;;;;;;;7.78;5.35;;;;;;;;;;5026218;28;20056;-93
2023/06/23 11:46:14;;;;;;;8.00;5.32;;;;;;;;;;5028434;28;20103;-92
2023/06/23 11:48:40;;;;;;;9.63;5.40;;;;;;;;;;5025766;28;20052;-80
2023/06/23 11:51:09;;;;;;;9.85;5.40;;;;;;;;;;5053790;28;20045;-80
2023/06/23 11:53:35;;;;;;;7.93;5.78;;;;;;;;;;5035892;28;20048;-79
2023/06/23 11:56:02;;;;;;;7.63;5.00;;;;;;;;;;5019298;28;20049;-80
2023/06/23 11:58:30;;;;;;;8.20;5.10;;;;;;;;;;5037158;28;20076;-79
2023/06/23 12:00:56;;;;;;;7.28;4.90;;;;;;;;;;5034916;28;20517;-79
2023/06/23 12:03:22;;;;;;;7.10;4.57;;;;;;;;;;5035332;28;20614;-80
2023/06/23 12:05:48;;;;;;;6.38;4.35;;;;;;;;;;5053851;28;20125;-78
2023/06/23 12:08:14;;;;;;;7.78;5.22;;;;;;;;;;5035405;28;20464;-78
2023/06/23 12:10:41;;;;;;;8.02;4.15;;;;;;;;;;5053212;28;20064;-78
2023/06/23 12:13:11;;;;;;;7.22;4.03;;;;;;;;;;5053081;28;20045;-79
2023/06/23 12:15:37;;;;;;;7.30;4.07;;;;;;;;;;5034765;28;20131;-79
2023/06/23 12:18:04;;;;;;;6.57;3.53;;;;;;;;;;5051326;28;20049;-80
2023/06/23 12:20:34;;;;;;;5.40;3.65;;;;;;;;;;5035128;28;20127;-79
2023/06/23 12:23:02;;;;;;;6.55;3.42;;;;;;;;;;5035508;28;20378;-80
2023/06/23 12:25:35;;;;;;;5.68;3.53;;;;;;;;;;5034598;28;20048;-80
2023/06/23 12:28:03;;;;;;;5.07;3.20;;;;;;;;;;5023437;28;20052;-80
2023/06/23 12:30:37;;;;;;;5.18;3.45;;;;;;;;;;5051153;28;20060;-81
2023/06/23 12:33:03;;;;;;;10.43;4.20;;;;;;;;;;5015740;28;20037;-83
2023/06/23 12:35:30;;;;;;;6.45;3.40;;;;;;;;;;5036170;28;20438;-83
2023/06/23 12:37:56;;;;;;;5.85;3.85;;;;;;;;;;5031395;28;20041;-83
2023/06/23 12:40:29;;;;;;;6.20;3.50;;;;;;;;;;5050951;28;20083;-82
2023/06/23 12:42:57;;;;;;;6.78;3.00;;;;;;;;;;5032890;28;20486;-83
2023/06/23 12:45:24;;;;;;;4.43;2.70;;;;;;;;;;5053519;28;20131;-82
2023/06/23 12:47:51;;;;;;;5.53;2.80;;;;;;;;;;5051612;28;20460;-85
2023/06/23 12:50:25;;;;;;;6.47;3.10;;;;;;;;;;5051884;28;20055;-82
2023/06/23 12:52:51;;;;;;;5.65;2.97;;;;;;;;;;5051551;28;20121;-81
2023/06/23 12:55:17;;;;;;;6.22;2.55;;;;;;;;;;5055753;28;20441;-83
2023/06/23 12:57:44;;;;;;;4.30;2.50;;;;;;;;;;5050137;28;20052;-81
2023/06/23 13:00:12;;;;;;;5.50;2.92;;;;;;;;;;5030968;28;20049;-80
2023/06/23 13:02:39;;;;;;;5.00;2.80;;;;;;;;;;5032746;28;20053;-81
2023/06/23 13:05:05;;;;;;;6.28;2.65;;;;;;;;;;5026254;28;20056;-81
2023/06/23 13:07:31;;;;;;;5.35;3.05;;;;;;;;;;5031052;28;20041;-83
2023/06/23 13:09:57;;;;;;;6.90;3.00;;;;;;;;;;5013142;28;20374;-82
2023/06/23 13:12:23;;;;;;;7.57;2.90;;;;;;;;;;5016053;28;20466;-84
2023/06/23 13:14:52;;;;;;;5.72;3.05;;;;;;;;;;5014779;28;20132;-82
2023/06/23 13:17:19;;;;;;;5.07;3.22;;;;;;;;;;5037726;28;20044;-80
2023/06/23 13:19:45;;;;;;;6.55;2.80;;;;;;;;;;5051650;28;20136;-82
2023/06/23 13:22:11;;;;;;;4.30;2.42;;;;;;;;;;5051333;28;20041;-82
2023/06/23 13:24:37;;;;;;;4.07;2.50;;;;;;;;;;5035309;28;20049;-82
2023/06/23 13:27:08;;;;;;;6.45;2.58;;;;;;;;;;5031818;28;20041;-84
2023/06/23 13:29:36;;;;;;;5.30;2.60;;;;;;;;;;5023445;28;20080;-81
2023/06/23 13:32:03;;;;;;;4.63;2.47;;;;;;;;;;5050930;28;20125;-82
2023/06/23 13:34:29;;;;;;;4.95;2.40;;;;;;;;;;5051939;28;20460;-81
2023/06/23 13:36:55;;;;;;;4.03;2.40;;;;;;;;;;5051525;28;20457;-82
2023/06/23 13:39:21;;;;;;;4.85;2.40;;;;;;;;;;5051555;28;20049;-82
2023/06/23 13:41:48;;;;;;;6.22;2.38;;;;;;;;;;5034188;28;20048;-80
2023/06/23 13:44:17;;;;;;;8.48;2.30;;;;;;;;;;5033863;28;20048;-81
2023/06/23 13:46:43;;;;;;;5.57;2.40;;;;;;;;;;5051426;28;20456;-83
2023/06/23 13:49:12;;;;;;;5.05;2.28;;;;;;;;;;5050801;28;20044;-83
2023/06/23 13:51:38;;;;;;;5.82;2.28;;;;;;;;;;5050466;28;20049;-80
2023/06/23 13:54:04;;;;;;;5.72;2.28;;;;;;;;;;5033297;28;20128;-80
2023/06/23 13:56:30;;;;;;;6.03;2.40;;;;;;;;;;5052057;28;20049;-86
2023/06/23 13:58:56;;;;;;;6.18;2.35;;;;;;;;;;5051817;28;20043;-82
2023/06/23 14:01:22;;;;;;;5.28;2.50;;;;;;;;;;5051636;28;20110;-82
2023/06/23 14:03:52;;;;;;;7.07;2.63;;;;;;;;;;5048366;28;20102;-82
2023/06/23 14:06:19;;;;;;;5.22;2.45;;;;;;;;;;5050984;28;20037;-81
2023/06/23 14:08:46;;;;;;;5.50;2.30;;;;;;;;;;5046514;28;20053;-83
2023/06/23 14:11:12;;;;;;;4.90;2.50;;;;;;;;;;5031517;28;20406;-83
2023/06/23 14:13:38;;;;;;;5.78;2.40;;;;;;;;;;5031899;28;20124;-84
2023/06/23 14:16:06;;;;;;;6.28;2.28;;;;;;;;;;5030653;28;20346;-83
2023/06/23 14:18:32;;;;;;;5.03;2.42;;;;;;;;;;5029814;28;20099;-84
2023/06/23 14:20:58;;;;;;;4.47;2.50;;;;;;;;;;5027709;28;20052;-82
2023/06/23 14:23:25;;;;;;;5.30;2.30;;;;;;;;;;5026002;28;20037;-83
2023/06/23 14:25:51;;;;;;;4.55;2.53;;;;;;;;;;5021620;28;20410;-86
2023/06/23 14:28:17;;;;;;;4.65;2.30;;;;;;;;;;5026312;28;20030;-87
2023/06/23 14:30:43;;;;;;;4.72;2.42;;;;;;;;;;5029703;28;20427;-87
2023/06/23 14:33:10;;;;;;;5.65;2.80;;;;;;;;;;5045988;28;20041;-87
2023/06/23 14:35:36;;;;;;;4.70;2.35;;;;;;;;;;5014446;28;20049;-88
2023/06/23 14:38:05;;;;;;;4.85;2.60;;;;;;;;;;5012636;28;20049;-87
2023/06/23 14:40:34;;;;;;;4.68;2.30;;;;;;;;;;5025024;28;20489;-87
2023/06/23 14:43:01;;;;;;;5.57;2.40;;;;;;;;;;5030926;28;20041;-86
2023/06/23 14:45:40;;;;;;;4.85;2.30;;;;;;;;;;5030846;28;20049;-89